OTBD/DOH METAR and TAF weather

Enter ICAO airport designator
Station Type Date Time Source
OTBD METAR 2020/04/10 17:30 UTC NOAA

OTBD 101730Z AUTO 13010KT CAVOK 29/20 Q1006 NOSIG


Station Type Date Time Source
OTBD Decoded METAR 2020/04/10 17:30 UTC NOAA

Doha International Airport, Qatar (OTBD) 25-15N 051-34E 10M
Apr 10, 2020 - 01:30 PM EDT / 2020.04.10 1730 UTC
Wind: from the SE (130 degrees) at 12 MPH (10 KT):0
Visibility: greater than 7 mile(s):0
Temperature: 84 F (29 C)
Dew Point: 68 F (20 C)
Relative Humidity: 58%
Pressure (altimeter): 29.71 in. Hg (1006 hPa)
ob: OTBD 101730Z AUTO 13010KT CAVOK 29/20 Q1006 NOSIG
cycle: 17

Station Type Date Time Source
OTBD TAF 2020/04/10 18:12 UTC NOAA

TAF TAF OTBD 101708Z 1018/1124 15012KT 7000 NSC PROB30
TEMPO 1012/1100 5000 DU
TEMPO 1018/1108 15015G25KT 4000 BLDU

Example: see airport list